Munoz, Philippines

7:38 AM PHT on April 22, 2015 (GMT +0800)
Clark International | | Change Station
CLOSE
Current Station
Airport
Location: Angeles / Pampanga,
Elevation: 509 ft
Nearby Weather Stations

Elev 509 ft 15.19 °N, 120.56 °E | Updated 38 minutes ago

Mostly Cloudy
Mostly Cloudy
81 °F
Feels Like 85 °F
N
1
Wind Variable Wind from WNW

Today
High -- | Low -- °F
--% Chance of Precip.
Yesterday
High -- | Low -- °F
Precip. -- in
5:37 AM 6:12 PM
Waxing Crescent, 13% visible
Pressure 29.92 in
Visibility 6.2 miles
Clouds Few 2000 ft
Mostly Cloudy 30000 ft
Heat Index 85 °F
Dew Point 73 °F
Humidity 79%
Rainfall 0.00 in
Snow Depth Not available.
UV 1 out of 12
Pollen Not available.
Air Quality Not available.
Flu Activity Not available.
METAR RPLC 212300Z 30001KT 9999 FEW020 BKN300 27/23 Q1013 NOSIG RMK A2991

More Conditions Fewer Conditions

Pressure 29.92 in
Visibility 6.2 miles
Clouds Few 2000 ft
Mostly Cloudy 30000 ft
Heat Index 85 °F
Dew Point 73 °F
Humidity 79%
Rainfall 0.00 in
Snow Depth Not available.
UV 1 out of 12
Pollen Not available.
Air Quality Not available.
Flu Activity Not available.
METAR RPLC 212300Z 30001KT 9999 FEW020 BKN300 27/23 Q1013 NOSIG RMK A2991

More Conditions Fewer Conditions

10-Day Weather Forecast

Almanac

Astronomy

Apr. 22, 2015 Rise Set
Actual Time
Civil Twilight
Nautical Twilight
Astronomical Twilight
Moon
Length of Visible Light
Length of Day
Tomorrow will be .
, % of the Moon is Illuminated

Today's Extremes

Country Highs Country Lows

Community

WunderPhotos

Upload Photos

1,815,579 photos uploaded!

WunderBlogs® & News

Nearby

Air Quality

  Air Quality AQ Index Pollutant
Not available.

Snow Depth

Station Depth Elevation

Earthquake Activity

City Distance Mag. Time & Date
Minimum magnitude displayed is 2.5.

Coastal Water Temperatures

Place Temperature

Stations

Nearby Weather Stations

Station Location Temp. Windchill Dew Point Humidity Wind Precip. Elev Updated Type